createdAt,value
2022-09-23T00:02:48.190Z,18.25
2022-09-23T00:05:38.556Z,18.25
2022-09-23T00:08:28.543Z,18.25
2022-09-23T00:11:20.220Z,18.25
2022-09-23T00:14:10.872Z,18.19
2022-09-23T00:17:00.938Z,18.19
2022-09-23T00:19:50.999Z,18.19
2022-09-23T00:22:40.903Z,18.19
2022-09-23T00:25:30.817Z,18.19
2022-09-23T00:28:20.961Z,18.19
2022-09-23T00:31:12.486Z,18.19
2022-09-23T00:34:02.629Z,18.13
2022-09-23T00:36:52.538Z,18.13
2022-09-23T00:39:45.205Z,18.13
2022-09-23T00:42:35.102Z,18.13
2022-09-23T00:45:25.465Z,18.13
2022-09-23T00:48:17.549Z,18.13
2022-09-23T00:51:09.353Z,18.06
2022-09-23T00:53:59.275Z,18.06
2022-09-23T00:56:49.262Z,18.06
2022-09-23T00:59:39.141Z,18.06
2022-09-23T01:02:29.094Z,18.06
2022-09-23T01:05:19.401Z,18.06
2022-09-23T01:08:10.515Z,18.00
2022-09-23T01:11:09.727Z,18.00
2022-09-23T01:14:09.599Z,18.00
2022-09-23T01:17:03.269Z,18.00
2022-09-23T01:20:24.328Z,18.00
2022-09-23T01:23:28.439Z,18.00
2022-09-23T01:26:43.301Z,17.94
2022-09-23T01:30:10.472Z,17.94
2022-09-23T01:33:05.084Z,17.94
2022-09-23T01:36:09.804Z,17.94
2022-09-23T01:39:03.107Z,17.88
2022-09-23T01:41:59.288Z,17.88
2022-09-23T01:44:53.115Z,17.88
2022-09-23T01:47:47.770Z,17.88
2022-09-23T01:50:56.810Z,17.88
2022-09-23T01:53:49.256Z,17.88
2022-09-23T01:56:42.397Z,17.81
2022-09-23T01:59:35.132Z,17.81
2022-09-23T02:02:28.399Z,17.81
2022-09-23T02:05:20.951Z,17.81
2022-09-23T02:08:13.228Z,17.81
2022-09-23T02:11:05.898Z,17.81
2022-09-23T02:13:57.939Z,17.81
2022-09-23T02:16:49.050Z,17.81
2022-09-23T02:19:43.646Z,17.81
2022-09-23T02:22:38.494Z,17.81
2022-09-23T02:25:39.373Z,17.81
2022-09-23T02:28:32.579Z,17.75
2022-09-23T02:31:30.260Z,17.75
2022-09-23T02:34:28.440Z,17.75
2022-09-23T02:37:25.645Z,17.75
2022-09-23T02:40:21.989Z,17.75
2022-09-23T02:43:14.795Z,17.75
2022-09-23T02:46:05.813Z,17.75
2022-09-23T02:49:00.407Z,17.75
2022-09-23T02:51:50.432Z,17.75
2022-09-23T02:54:40.440Z,17.75
2022-09-23T02:57:30.280Z,17.75
2022-09-23T03:00:20.446Z,17.75
2022-09-23T03:03:23.066Z,17.69
2022-09-23T03:06:24.064Z,17.69
2022-09-23T03:09:18.197Z,17.69
2022-09-23T03:12:13.692Z,17.69
2022-09-23T03:15:14.857Z,17.69
2022-09-23T03:18:12.668Z,17.69
2022-09-23T03:21:05.704Z,17.69
2022-09-23T03:23:56.567Z,17.69
2022-09-23T03:26:47.261Z,17.69
2022-09-23T03:29:37.137Z,17.69
2022-09-23T03:32:28.400Z,17.69
2022-09-23T03:35:18.709Z,17.69
2022-09-23T03:38:16.795Z,17.69
2022-09-23T03:41:06.672Z,17.69
2022-09-23T03:43:58.924Z,17.69
2022-09-23T03:46:49.405Z,17.69
2022-09-23T03:49:39.439Z,17.69
2022-09-23T03:52:29.781Z,17.69
2022-09-23T03:55:20.705Z,17.69
2022-09-23T03:58:10.981Z,17.69
2022-09-23T04:01:01.358Z,17.69
2022-09-23T04:03:52.393Z,17.69
2022-09-23T04:06:42.684Z,17.69
2022-09-23T04:09:32.986Z,17.63
2022-09-23T04:12:23.220Z,17.69
2022-09-23T04:15:13.667Z,17.69
2022-09-23T04:18:04.296Z,17.69
2022-09-23T04:20:58.900Z,17.69
2022-09-23T04:23:49.235Z,17.69
2022-09-23T04:26:39.540Z,17.69
2022-09-23T04:29:29.931Z,17.69
2022-09-23T04:32:20.292Z,17.69
2022-09-23T04:35:10.831Z,17.69
2022-09-23T04:38:01.501Z,17.69
2022-09-23T04:40:52.057Z,17.69
2022-09-23T04:43:42.445Z,17.69
2022-09-23T04:46:33.009Z,17.69
2022-09-23T04:49:23.416Z,17.69
2022-09-23T04:52:13.686Z,17.69
2022-09-23T04:55:09.128Z,17.69
2022-09-23T04:58:01.360Z,17.63
2022-09-23T05:00:51.705Z,17.63
2022-09-23T05:03:42.293Z,17.63
2022-09-23T05:06:33.931Z,17.63
2022-09-23T05:09:24.501Z,17.63
2022-09-23T05:12:14.775Z,17.63
2022-09-23T05:15:06.451Z,17.63
2022-09-23T05:17:59.956Z,17.63
2022-09-23T05:20:55.377Z,17.63
2022-09-23T05:23:49.296Z,17.56
2022-09-23T05:26:39.938Z,17.56
2022-09-23T05:29:30.696Z,17.56
2022-09-23T05:32:21.274Z,17.56
2022-09-23T05:35:12.057Z,17.56
2022-09-23T05:38:02.337Z,17.56
2022-09-23T05:40:58.048Z,17.56
2022-09-23T05:43:48.324Z,17.56
2022-09-23T05:46:39.004Z,17.63
2022-09-23T05:49:48.622Z,17.56
2022-09-23T05:52:40.755Z,17.63
2022-09-23T05:55:31.094Z,17.63
2022-09-23T05:58:23.036Z,17.63
2022-09-23T06:01:14.762Z,17.63
2022-09-23T06:04:06.917Z,17.63
2022-09-23T06:07:02.802Z,17.63
2022-09-23T06:10:14.988Z,17.63
2022-09-23T06:13:05.713Z,17.69
2022-09-23T06:16:00.076Z,17.69
2022-09-23T06:18:50.415Z,17.69
2022-09-23T06:21:41.683Z,17.69
2022-09-23T06:24:31.967Z,17.75
2022-09-23T06:27:22.348Z,17.75
2022-09-23T06:30:16.497Z,17.75
2022-09-23T06:33:06.945Z,17.75
2022-09-23T06:35:59.961Z,17.75
2022-09-23T06:38:52.714Z,17.81
2022-09-23T06:41:43.735Z,17.81
2022-09-23T06:44:37.949Z,17.88
2022-09-23T06:47:29.448Z,17.88
2022-09-23T06:50:20.112Z,17.88
2022-09-23T06:53:10.690Z,17.94
2022-09-23T06:56:02.162Z,17.94
2022-09-23T06:58:56.308Z,17.94
2022-09-23T07:01:47.782Z,17.94
2022-09-23T07:04:38.362Z,17.88
2022-09-23T07:07:32.316Z,17.88
2022-09-23T07:10:22.719Z,17.88
2022-09-23T07:13:16.238Z,17.88
2022-09-23T07:16:07.931Z,17.94
2022-09-23T07:18:59.318Z,17.94
2022-09-23T07:21:50.080Z,18.00
2022-09-23T07:24:40.790Z,18.06
2022-09-23T07:27:31.241Z,18.06
2022-09-23T07:30:25.771Z,18.06
2022-09-23T07:33:28.092Z,18.06
2022-09-23T07:36:21.739Z,18.13
2022-09-23T07:39:13.212Z,18.13
2022-09-23T07:42:06.738Z,18.19
2022-09-23T07:44:57.248Z,18.19
2022-09-23T07:47:48.467Z,18.19
2022-09-23T07:50:40.642Z,18.25
2022-09-23T07:53:31.247Z,18.31
2022-09-23T07:56:27.710Z,18.31
2022-09-23T07:59:19.438Z,18.38
2022-09-23T08:02:14.783Z,18.38
2022-09-23T08:05:06.391Z,18.38
2022-09-23T08:07:57.151Z,18.44
2022-09-23T08:10:47.929Z,18.44
2022-09-23T08:13:38.240Z,18.44
2022-09-23T08:16:28.851Z,18.44
2022-09-23T08:19:19.213Z,18.50
2022-09-23T08:22:09.589Z,18.56
2022-09-23T08:25:00.237Z,18.63
2022-09-23T08:27:51.995Z,18.63
2022-09-23T08:30:42.368Z,18.63
2022-09-23T08:33:32.770Z,18.63
2022-09-23T08:36:23.028Z,18.63
2022-09-23T08:39:16.865Z,18.69
2022-09-23T08:42:16.785Z,18.69
2022-09-23T08:45:12.455Z,18.69
2022-09-23T08:48:09.533Z,18.75
2022-09-23T08:51:06.377Z,18.75
2022-09-23T08:53:56.717Z,18.75
2022-09-23T08:56:49.025Z,18.69
2022-09-23T08:59:41.792Z,18.69
2022-09-23T09:02:34.309Z,18.69
2022-09-23T09:05:27.174Z,18.63
2022-09-23T09:08:18.713Z,18.63
2022-09-23T09:11:11.523Z,18.63
2022-09-23T09:14:10.724Z,18.63
2022-09-23T09:17:03.537Z,18.63
2022-09-23T09:19:58.830Z,18.63
2022-09-23T09:22:54.360Z,18.69
2022-09-23T09:25:46.354Z,18.69
2022-09-23T09:28:40.591Z,18.69
2022-09-23T09:31:35.518Z,18.69
2022-09-23T09:34:30.905Z,18.69
2022-09-23T09:37:25.115Z,18.69
2022-09-23T09:40:16.550Z,18.75
2022-09-23T09:43:06.895Z,18.75
2022-09-23T09:46:07.725Z,18.75
2022-09-23T09:49:00.577Z,18.75
2022-09-23T09:51:54.773Z,18.75
2022-09-23T09:54:45.052Z,18.75
2022-09-23T09:57:43.529Z,18.75
2022-09-23T10:00:42.781Z,18.81
2022-09-23T10:03:38.869Z,18.81
2022-09-23T10:06:31.837Z,18.81
2022-09-23T10:09:36.118Z,18.88
2022-09-23T10:12:26.763Z,18.88
2022-09-23T10:15:30.718Z,18.88
2022-09-23T10:18:23.100Z,18.88
2022-09-23T10:21:14.305Z,18.94
2022-09-23T10:24:06.970Z,18.94
2022-09-23T10:27:00.729Z,18.94
2022-09-23T10:29:52.080Z,19.00
2022-09-23T10:32:45.657Z,19.00
2022-09-23T10:35:36.198Z,19.00
2022-09-23T10:38:26.530Z,19.00
2022-09-23T10:41:44.807Z,19.00
2022-09-23T10:44:57.760Z,19.06
2022-09-23T10:47:54.371Z,19.13
2022-09-23T10:50:48.107Z,19.19
2022-09-23T10:53:42.970Z,19.19
2022-09-23T10:56:36.930Z,19.19
2022-09-23T10:59:56.828Z,19.19
2022-09-23T11:03:12.369Z,19.25
2022-09-23T11:06:13.068Z,19.25
2022-09-23T11:09:27.546Z,19.31
2022-09-23T11:12:25.732Z,19.25
2022-09-23T11:15:26.597Z,19.25
2022-09-23T11:18:51.074Z,19.25
2022-09-23T11:21:56.529Z,19.25
2022-09-23T11:25:16.647Z,19.31
2022-09-23T11:28:25.562Z,19.38
2022-09-23T11:31:25.967Z,19.38
2022-09-23T11:34:40.349Z,19.38
2022-09-23T11:37:33.267Z,19.38
2022-09-23T11:40:28.147Z,19.38
2022-09-23T11:43:22.790Z,19.44
2022-09-23T11:46:18.469Z,19.44
2022-09-23T11:49:14.913Z,19.50
2022-09-23T11:52:08.647Z,19.50
2022-09-23T11:55:03.442Z,19.50
2022-09-23T11:58:01.573Z,19.56
2022-09-23T12:01:00.849Z,19.50
2022-09-23T12:03:55.642Z,19.50
2022-09-23T12:06:48.129Z,19.50
2022-09-23T12:09:57.783Z,19.50
2022-09-23T12:12:56.899Z,19.56
2022-09-23T12:15:58.497Z,19.56
2022-09-23T12:18:58.588Z,19.56
2022-09-23T12:21:59.793Z,19.63
2022-09-23T12:24:56.660Z,19.56
2022-09-23T12:27:49.684Z,19.56
2022-09-23T12:30:39.991Z,19.63
2022-09-23T12:33:31.865Z,19.63
2022-09-23T12:36:29.823Z,19.63
2022-09-23T12:39:26.387Z,19.63
2022-09-23T12:42:18.384Z,19.69
2022-09-23T12:45:37.982Z,19.69
2022-09-23T12:48:46.107Z,19.69
2022-09-23T12:51:36.969Z,19.69
2022-09-23T12:54:27.316Z,19.75
2022-09-23T12:57:40.180Z,19.75
2022-09-23T13:00:34.204Z,19.75
2022-09-23T13:03:43.167Z,19.75
2022-09-23T13:06:42.914Z,19.75
2022-09-23T13:09:39.337Z,19.81
2022-09-23T13:12:32.312Z,19.81
2022-09-23T13:15:30.041Z,19.81
2022-09-23T13:18:58.113Z,19.88
2022-09-23T13:22:14.637Z,19.88
2022-09-23T13:25:18.519Z,19.88
2022-09-23T13:28:24.241Z,19.94
2022-09-23T13:31:16.105Z,19.94
2022-09-23T13:34:07.479Z,20.00
2022-09-23T13:36:58.236Z,20.00
2022-09-23T13:39:48.496Z,20.00
2022-09-23T13:42:40.049Z,20.00
2022-09-23T13:45:31.176Z,20.00
2022-09-23T13:48:23.209Z,20.00
2022-09-23T13:51:19.267Z,20.06
2022-09-23T13:54:28.335Z,20.06
2022-09-23T13:57:26.304Z,20.06
2022-09-23T14:00:21.736Z,20.06
2022-09-23T14:03:26.135Z,20.13
2022-09-23T14:06:16.760Z,20.13
2022-09-23T14:09:07.188Z,20.06
2022-09-23T14:11:59.145Z,20.13
2022-09-23T14:14:51.081Z,20.13
2022-09-23T14:17:41.462Z,20.13
2022-09-23T14:20:33.717Z,20.19
2022-09-23T14:23:24.170Z,20.19
2022-09-23T14:26:14.488Z,20.19
2022-09-23T14:29:05.530Z,20.19
2022-09-23T14:32:00.117Z,20.19
2022-09-23T14:34:52.841Z,20.25
2022-09-23T14:38:02.167Z,20.25
2022-09-23T14:40:53.996Z,20.25
2022-09-23T14:43:52.007Z,20.25
2022-09-23T14:46:57.382Z,20.31
2022-09-23T14:50:09.521Z,20.31
2022-09-23T14:53:00.186Z,20.31
2022-09-23T14:55:52.194Z,20.31
2022-09-23T14:58:52.032Z,20.31
2022-09-23T15:01:43.112Z,20.31
2022-09-23T15:04:36.641Z,20.31
2022-09-23T15:07:26.924Z,20.31
2022-09-23T15:10:23.093Z,20.31
2022-09-23T15:13:14.660Z,20.31
2022-09-23T15:16:05.868Z,20.31
2022-09-23T15:18:57.349Z,20.31
2022-09-23T15:21:50.281Z,20.31
2022-09-23T15:24:44.211Z,20.31
2022-09-23T15:27:34.860Z,20.31
2022-09-23T15:30:25.200Z,20.31
2022-09-23T15:33:15.950Z,20.31
2022-09-23T15:36:07.637Z,20.31
2022-09-23T15:38:59.394Z,20.31
2022-09-23T15:41:49.865Z,20.31
2022-09-23T15:44:40.429Z,20.31
2022-09-23T15:47:31.110Z,20.31
2022-09-23T15:50:21.672Z,20.31
2022-09-23T15:53:14.930Z,20.25
2022-09-23T15:56:06.180Z,20.25
2022-09-23T15:58:56.476Z,20.25
2022-09-23T16:01:47.278Z,20.25
2022-09-23T16:04:37.649Z,20.25
2022-09-23T16:07:28.217Z,20.25
2022-09-23T16:10:19.767Z,20.25
2022-09-23T16:13:14.470Z,20.25
2022-09-23T16:16:07.384Z,20.25
2022-09-23T16:18:57.910Z,20.25
2022-09-23T16:21:48.390Z,20.25
2022-09-23T16:24:38.739Z,20.25
2022-09-23T16:27:29.119Z,20.19
2022-09-23T16:30:19.779Z,20.19
2022-09-23T16:33:10.052Z,20.19
2022-09-23T16:36:00.672Z,20.19
2022-09-23T16:38:50.990Z,20.19
2022-09-23T16:41:42.932Z,20.19
2022-09-23T16:44:33.552Z,20.19
2022-09-23T16:47:23.951Z,20.19
2022-09-23T16:50:15.714Z,20.19
2022-09-23T16:53:06.045Z,20.13
2022-09-23T16:55:57.357Z,20.13
2022-09-23T16:58:49.173Z,20.13
2022-09-23T17:01:58.259Z,20.13
2022-09-23T17:04:48.724Z,20.13
2022-09-23T17:07:39.643Z,20.06
2022-09-23T17:10:29.991Z,20.06
2022-09-23T17:13:20.303Z,20.06
2022-09-23T17:16:11.436Z,20.06
2022-09-23T17:19:06.242Z,20.00
2022-09-23T17:21:56.619Z,20.00
2022-09-23T17:24:47.105Z,20.00
2022-09-23T17:27:37.525Z,19.94
2022-09-23T17:30:28.237Z,19.94
2022-09-23T17:33:20.154Z,19.94
2022-09-23T17:36:12.785Z,19.94
2022-09-23T17:39:05.542Z,19.94
2022-09-23T17:41:57.921Z,19.88
2022-09-23T17:44:48.497Z,19.88
2022-09-23T17:47:41.707Z,19.88
2022-09-23T17:50:32.471Z,19.88
2022-09-23T17:53:24.196Z,19.88
2022-09-23T17:56:16.860Z,19.81
2022-09-23T17:59:09.680Z,19.81
2022-09-23T18:02:00.408Z,19.81
2022-09-23T18:04:50.772Z,19.81
2022-09-23T18:07:42.184Z,19.81
2022-09-23T18:10:33.023Z,19.81
2022-09-23T18:13:23.618Z,19.81
2022-09-23T18:16:14.216Z,19.81
2022-09-23T18:19:06.108Z,19.81
2022-09-23T18:21:57.106Z,19.81
2022-09-23T18:24:47.485Z,19.81
2022-09-23T18:27:38.076Z,19.81
2022-09-23T18:30:32.460Z,19.81
2022-09-23T18:33:23.074Z,19.75
2022-09-23T18:36:13.690Z,19.75
2022-09-23T18:39:04.355Z,19.75
2022-09-23T18:41:55.003Z,19.81
2022-09-23T18:44:45.429Z,19.75
2022-09-23T18:47:54.168Z,19.75
2022-09-23T18:50:46.947Z,19.75
2022-09-23T18:53:38.912Z,19.75
2022-09-23T18:56:32.190Z,19.75
2022-09-23T18:59:27.406Z,19.75
2022-09-23T19:02:18.907Z,19.75
2022-09-23T19:05:10.549Z,19.75
2022-09-23T19:08:02.345Z,19.75
2022-09-23T19:10:57.173Z,19.75
2022-09-23T19:13:47.543Z,19.75
2022-09-23T19:16:38.651Z,19.75
2022-09-23T19:19:29.680Z,19.75
2022-09-23T19:22:20.238Z,19.75
2022-09-23T19:25:11.813Z,19.75
2022-09-23T19:28:04.984Z,19.75
2022-09-23T19:30:55.704Z,19.75
2022-09-23T19:33:55.906Z,19.75
2022-09-23T19:36:47.401Z,19.75
2022-09-23T19:39:40.100Z,19.75
2022-09-23T19:42:30.503Z,19.75
2022-09-23T19:45:22.088Z,19.75
2022-09-23T19:48:12.693Z,19.75
2022-09-23T19:51:03.179Z,19.69
2022-09-23T19:53:53.789Z,19.69
2022-09-23T19:56:44.403Z,19.69
2022-09-23T19:59:34.761Z,19.69
2022-09-23T20:02:25.508Z,19.69
2022-09-23T20:05:20.289Z,19.69
2022-09-23T20:08:10.976Z,19.69
2022-09-23T20:11:09.656Z,19.69
2022-09-23T20:14:02.615Z,19.69
2022-09-23T20:16:55.647Z,19.69
2022-09-23T20:19:46.934Z,19.69
2022-09-23T20:22:37.279Z,19.69
2022-09-23T20:25:51.294Z,19.69
2022-09-23T20:28:41.672Z,19.69
2022-09-23T20:31:33.616Z,19.69
2022-09-23T20:34:27.574Z,19.69
2022-09-23T20:37:19.451Z,19.63
2022-09-23T20:40:12.824Z,19.69
2022-09-23T20:43:04.078Z,19.63
2022-09-23T20:45:55.413Z,19.63
2022-09-23T20:48:47.831Z,19.63
2022-09-23T20:51:38.713Z,19.63
2022-09-23T20:54:30.408Z,19.63
2022-09-23T20:57:22.321Z,19.63
2022-09-23T21:00:17.690Z,19.63
2022-09-23T21:03:08.416Z,19.63
2022-09-23T21:06:01.777Z,19.69
2022-09-23T21:08:54.397Z,19.69
2022-09-23T21:11:44.817Z,19.69
2022-09-23T21:14:35.141Z,19.69
2022-09-23T21:17:26.326Z,19.69
2022-09-23T21:20:16.807Z,19.69
2022-09-23T21:23:07.539Z,19.69
2022-09-23T21:26:02.551Z,19.69
2022-09-23T21:28:54.159Z,19.69
2022-09-23T21:31:44.905Z,19.69
2022-09-23T21:34:35.347Z,19.69
2022-09-23T21:37:25.797Z,19.69
2022-09-23T21:40:35.370Z,19.69
2022-09-23T21:43:27.104Z,19.69
2022-09-23T21:46:19.912Z,19.69
2022-09-23T21:49:10.342Z,19.69
2022-09-23T21:52:00.972Z,19.69
2022-09-23T21:54:51.967Z,19.69
2022-09-23T21:57:43.640Z,19.69
2022-09-23T22:00:34.062Z,19.69
2022-09-23T22:03:24.643Z,19.69
2022-09-23T22:06:20.965Z,19.69
2022-09-23T22:09:15.195Z,19.63
2022-09-23T22:12:07.996Z,19.69
2022-09-23T22:14:58.467Z,19.63
2022-09-23T22:17:49.457Z,19.63
2022-09-23T22:20:40.749Z,19.63
2022-09-23T22:23:31.338Z,19.63
2022-09-23T22:26:21.678Z,19.63
2022-09-23T22:29:31.682Z,19.63
2022-09-23T22:32:52.842Z,19.63
2022-09-23T22:35:45.979Z,19.63
2022-09-23T22:38:36.328Z,19.63
2022-09-23T22:41:26.840Z,19.63
2022-09-23T22:44:17.601Z,19.63
2022-09-23T22:47:08.628Z,19.63
2022-09-23T22:49:59.221Z,19.63
2022-09-23T22:52:49.470Z,19.56
2022-09-23T22:55:41.414Z,19.56
2022-09-23T22:58:32.938Z,19.56
2022-09-23T23:01:23.521Z,19.56
2022-09-23T23:04:14.298Z,19.56
2022-09-23T23:07:06.380Z,19.56
2022-09-23T23:09:57.572Z,19.56
2022-09-23T23:12:48.709Z,19.56
2022-09-23T23:15:40.549Z,19.50
2022-09-23T23:18:34.440Z,19.50
2022-09-23T23:21:24.724Z,19.50
2022-09-23T23:24:18.132Z,19.50
2022-09-23T23:27:08.402Z,19.50
2022-09-23T23:29:58.725Z,19.50
2022-09-23T23:32:49.005Z,19.50
2022-09-23T23:35:39.298Z,19.50
2022-09-23T23:38:29.578Z,19.50
2022-09-23T23:41:21.976Z,19.50
2022-09-23T23:44:14.146Z,19.44
2022-09-23T23:47:04.738Z,19.44
2022-09-23T23:49:55.120Z,19.44
2022-09-23T23:52:45.425Z,19.44
2022-09-23T23:55:39.274Z,19.44
2022-09-23T23:58:29.850Z,19.44
